Time;durP1;ratioP1;P1;durP2;ratioP2;P2;SDS_P1;SDS_P2;PMS_P1;PMS_P2;Temp;Humidity;BMP_temperature;BMP_pressure;BME280_temperature;BME280_humidity;BME280_pressure;Samples;Min_cycle;Max_cycle;Signal;HPM_P1;HPM_P2
2023/01/12 00:01:22;;;;;;;13.00;4.25;;;;;;;6.16;100.00;100900.66;6136488;23;20016;-86
2023/01/12 00:03:48;;;;;;;17.08;4.13;;;;;;;6.12;100.00;100887.59;6135496;23;20009;-85
2023/01/12 00:06:15;;;;;;;14.13;3.58;;;;;;;6.17;100.00;100899.75;6134349;23;20080;-85
2023/01/12 00:08:40;;;;;;;10.63;3.70;;;;;;;6.10;100.00;100889.41;6130724;23;20009;-85
2023/01/12 00:11:07;;;;;;;14.75;3.95;;;;;;;6.20;100.00;100901.44;6130155;23;20002;-85
2023/01/12 00:13:33;;;;;;;15.10;4.07;;;;;;;6.15;100.00;100882.22;6126894;23;20044;-84
2023/01/12 00:18:44;;;;;;;15.13;5.10;;;;;;;6.24;100.00;100881.91;6153496;23;20380;-84
2023/01/12 00:21:10;;;;;;;12.82;4.20;;;;;;;6.19;100.00;100873.28;6154479;23;20092;-85
2023/01/12 00:23:35;;;;;;;16.13;4.07;;;;;;;6.23;100.00;100875.78;6155580;23;20040;-85
2023/01/12 00:26:01;;;;;;;14.35;4.75;;;;;;;6.17;100.00;100861.88;6122820;23;20001;-85
2023/01/12 00:28:26;;;;;;;14.57;4.13;;;;;;;6.24;100.00;100879.28;6152601;23;20005;-84
2023/01/12 00:30:51;;;;;;;12.82;4.10;;;;;;;6.20;100.00;100865.28;6152060;23;20012;-84
2023/01/12 00:33:17;;;;;;;14.35;4.93;;;;;;;6.28;100.00;100875.63;6150527;23;20087;-84
2023/01/12 00:35:42;;;;;;;14.80;4.43;;;;;;;6.24;100.00;100855.50;6149252;23;20010;-84
2023/01/12 00:38:08;;;;;;;13.68;5.15;;;;;;;6.28;100.00;100865.03;6149064;23;20013;-84
2023/01/12 00:40:35;;;;;;;15.20;5.00;;;;;;;6.31;100.00;100861.41;6150197;23;20044;-84
2023/01/12 00:45:48;;;;;;;;;;;;;;;6.35;100.00;100860.41;6147246;23;20024;-85
2023/01/12 00:48:14;;;;;;;17.55;4.93;;;;;;;6.33;100.00;100841.97;6148197;23;19915;-85
2023/01/12 00:50:39;;;;;;;18.20;5.10;;;;;;;6.22;100.00;100815.00;6149654;23;20092;-85
2023/01/12 00:53:05;;;;;;;18.88;4.95;;;;;;;6.37;100.00;100843.59;6149104;23;20037;-85
2023/01/12 00:55:30;;;;;;;20.70;5.45;;;;;;;6.31;100.00;100827.94;6148714;23;20344;-84
2023/01/12 00:57:56;;;;;;;19.42;5.60;;;;;;;6.37;100.00;100833.00;6148381;23;20037;-85
2023/01/12 01:00:22;;;;;;;16.10;4.90;;;;;;;6.37;100.00;100822.44;6148738;23;20335;-85
2023/01/12 01:02:47;;;;;;;18.00;5.28;;;;;;;6.33;100.00;100812.88;6149237;23;20001;-85
2023/01/12 01:05:12;;;;;;;19.80;5.43;;;;;;;6.35;100.00;100813.69;6148520;23;20012;-84
2023/01/12 01:07:38;;;;;;;17.67;4.78;;;;;;;6.42;100.00;100817.84;6149469;23;20009;-85
2023/01/12 01:10:03;;;;;;;18.48;5.65;;;;;;;6.37;100.00;100814.50;6149685;23;20025;-86
2023/01/12 01:12:29;;;;;;;23.25;5.80;;;;;;;6.37;100.00;100803.94;6132068;23;20025;-85
2023/01/12 01:14:54;;;;;;;21.58;5.70;;;;;;;6.36;100.00;100791.63;6118811;23;20010;-85
2023/01/12 01:17:19;;;;;;;23.27;5.80;;;;;;;6.42;100.00;100809.06;6119909;23;20036;-85
2023/01/12 01:19:47;;;;;;;22.77;5.60;;;;;;;6.45;100.00;100808.97;6119900;23;20006;-85
2023/01/12 01:22:12;;;;;;;20.92;5.82;;;;;;;6.45;100.00;100799.25;6120071;23;20006;-85
2023/01/12 01:24:38;;;;;;;26.25;5.88;;;;;;;6.44;100.00;100794.88;6119793;23;20012;-85
2023/01/12 01:27:03;;;;;;;20.70;5.88;;;;;;;6.42;100.00;100791.41;6119850;23;20001;-85
2023/01/12 01:29:28;;;;;;;17.67;5.45;;;;;;;6.40;100.00;100772.13;6117727;23;20309;-85
2023/01/12 01:31:54;;;;;;;20.75;5.25;;;;;;;6.43;100.00;100771.97;6119878;23;20635;-85
2023/01/12 01:34:19;;;;;;;22.25;5.28;;;;;;;6.47;100.00;100792.13;6122296;23;20077;-85
2023/01/12 01:36:45;;;;;;;23.42;5.88;;;;;;;6.43;100.00;100785.19;6116909;23;20017;-86
2023/01/12 01:39:10;;;;;;;26.23;5.75;;;;;;;6.50;100.00;100791.16;6116922;23;20046;-85
2023/01/12 01:41:35;;;;;;;24.15;5.43;;;;;;;6.40;100.00;100769.47;6119783;23;20112;-86
2023/01/12 01:44:30;;;;;;;22.55;6.10;;;;;;;6.53;100.00;100798.13;6119856;23;20085;-85
2023/01/12 01:47:00;;;;;;;25.10;6.45;;;;;;;6.46;100.00;100790.38;6113305;23;20009;-86
2023/01/12 01:49:30;;;;;;;31.42;6.38;;;;;;;6.51;100.00;100792.00;6120267;23;20017;-86
2023/01/12 01:52:02;;;;;;;28.17;6.20;;;;;;;6.49;100.00;100792.94;6120284;23;20097;-86
2023/01/12 01:54:32;;;;;;;27.45;6.18;;;;;;;6.52;100.00;100777.88;6122351;23;20397;-86
2023/01/12 01:56:58;;;;;;;24.65;5.57;;;;;;;6.48;100.00;100770.06;6120834;23;20002;-86
2023/01/12 01:59:29;;;;;;;24.77;6.13;;;;;;;6.47;100.00;100776.25;6119497;23;20011;-87
2023/01/12 02:01:55;;;;;;;25.63;6.15;;;;;;;6.41;100.00;100734.19;6119104;23;20013;-87
2023/01/12 02:04:21;;;;;;;17.38;5.72;;;;;;;6.42;100.00;100729.75;6119045;23;20009;-87
2023/01/12 02:06:47;;;;;;;22.33;6.00;;;;;;;6.47;100.00;100735.72;6120745;23;20286;-87
2023/01/12 02:09:21;;;;;;;27.65;7.20;;;;;;;6.46;100.00;100747.22;6119117;23;20006;-86
2023/01/12 02:17:42;;;;;;;23.65;6.38;;;;;;;6.47;100.00;100733.09;6119284;23;20093;-87
2023/01/12 02:20:35;;;;;;;23.75;5.95;;;;;;;6.38;100.00;100722.84;6118626;23;20010;-85
2023/01/12 02:23:18;;;;;;;30.00;7.35;;;;;;;6.43;100.00;100744.69;6119690;23;20009;-86
2023/01/12 02:26:17;;;;;;;25.38;6.18;;;;;;;6.45;100.00;100733.16;6127745;23;20013;-86
2023/01/12 02:29:07;;;;;;;26.02;6.40;;;;;;;6.48;100.00;100727.75;6143437;23;20002;-86
2023/01/12 02:31:44;;;;;;;29.67;7.10;;;;;;;6.45;100.00;100719.06;6145415;23;20069;-87
2023/01/12 02:34:15;;;;;;;29.80;6.65;;;;;;;6.48;100.00;100730.41;6143117;23;20010;-86
2023/01/12 02:37:01;;;;;;;26.77;6.35;;;;;;;6.45;100.00;100712.00;6139710;23;20069;-85
2023/01/12 02:39:39;;;;;;;32.65;6.70;;;;;;;6.48;100.00;100708.41;6138610;23;20006;-87
2023/01/12 02:42:42;;;;;;;25.15;5.90;;;;;;;6.43;100.00;100691.81;6130518;23;20006;-87
2023/01/12 02:45:32;;;;;;;23.53;6.00;;;;;;;6.51;100.00;100696.81;6122322;23;20064;-87
2023/01/12 02:48:26;;;;;;;25.17;6.55;;;;;;;6.50;100.00;100685.38;6122146;23;20248;-87
2023/01/12 02:51:13;;;;;;;23.17;6.03;;;;;;;6.54;100.00;100687.00;6116345;23;20002;-87
2023/01/12 02:54:00;;;;;;;23.75;6.55;;;;;;;6.58;100.00;100688.63;6125075;23;20237;-87
2023/01/12 02:56:45;;;;;;;29.85;7.22;;;;;;;6.55;100.00;100674.63;6124636;23;20034;-87
2023/01/12 02:59:21;;;;;;;22.40;6.38;;;;;;;6.47;100.00;100657.25;6124007;23;20037;-87
2023/01/12 03:01:50;;;;;;;22.63;6.13;;;;;;;6.54;100.00;100663.19;6128174;23;20005;-87
2023/01/12 03:04:17;;;;;;;26.85;6.75;;;;;;;6.56;100.00;100666.63;6126272;23;20089;-87
2023/01/12 03:06:46;;;;;;;22.23;6.80;;;;;;;6.57;100.00;100659.59;6127133;23;20006;-87
2023/01/12 03:09:15;;;;;;;20.77;5.93;;;;;;;6.59;100.00;100658.59;6123551;23;20014;-87
2023/01/12 03:11:42;;;;;;;26.50;6.63;;;;;;;6.53;100.00;100639.47;6121316;23;20017;-87
2023/01/12 03:14:09;;;;;;;26.70;6.72;;;;;;;6.57;100.00;100644.59;6120522;23;20013;-87
2023/01/12 03:16:39;;;;;;;25.90;5.82;;;;;;;6.54;100.00;100641.19;6120662;23;20006;-87
2023/01/12 03:19:08;;;;;;;25.55;6.30;;;;;;;6.53;100.00;100623.59;6121853;23;20428;-88
2023/01/12 03:21:38;;;;;;;25.35;5.88;;;;;;;6.58;100.00;100621.66;6121229;23;20162;-87
2023/01/12 03:24:11;;;;;;;23.20;6.10;;;;;;;6.54;100.00;100605.03;6117389;23;20435;-87
2023/01/12 03:26:41;;;;;;;23.50;6.40;;;;;;;6.57;100.00;100602.28;6119007;23;20006;-86
2023/01/12 03:29:32;;;;;;;26.55;7.00;;;;;;;6.57;100.00;100601.41;6118848;23;20013;-87
2023/01/12 03:31:58;;;;;;;23.95;7.10;;;;;;;6.56;100.00;100599.66;6118220;23;20018;-88
2023/01/12 03:34:25;;;;;;;27.58;7.18;;;;;;;6.55;100.00;100593.53;6117445;23;20006;-88
2023/01/12 03:37:22;;;;;;;27.02;6.40;;;;;;;6.52;100.00;100584.84;6118681;23;20032;-87
2023/01/12 03:40:00;;;;;;;23.35;6.30;;;;;;;6.56;100.00;100589.09;6118811;23;19997;-88
2023/01/12 03:42:48;;;;;;;24.50;6.60;;;;;;;6.54;100.00;100599.75;6117574;23;20052;-88
2023/01/12 03:45:21;;;;;;;22.27;6.65;;;;;;;6.44;100.00;100570.16;6118217;23;20016;-88
2023/01/12 03:47:54;;;;;;;28.15;6.03;;;;;;;6.54;100.00;100572.44;6118772;23;20013;-88
2023/01/12 03:50:30;;;;;;;22.08;5.95;;;;;;;6.56;100.00;100578.53;6119044;23;20012;-88
2023/01/12 03:52:59;;;;;;;22.33;6.10;;;;;;;6.54;100.00;100575.94;6119932;23;20010;-87
2023/01/12 03:55:28;;;;;;;20.80;6.15;;;;;;;6.55;100.00;100572.38;6119544;23;20013;-88
2023/01/12 03:57:55;;;;;;;22.55;5.30;;;;;;;6.53;100.00;100547.78;6118306;23;20428;-88
2023/01/12 04:00:23;;;;;;;18.88;5.47;;;;;;;6.55;100.00;100542.44;6120740;23;20022;-90
2023/01/12 04:02:49;;;;;;;27.40;6.18;;;;;;;6.55;100.00;100522.13;6120230;23;20013;-88
2023/01/12 04:05:15;;;;;;;23.13;5.57;;;;;;;6.49;100.00;100502.09;6119786;23;20005;-88
2023/01/12 04:07:40;;;;;;;21.73;5.72;;;;;;;6.46;100.00;100477.56;6119758;23;20077;-87
2023/01/12 04:10:06;;;;;;;23.52;5.35;;;;;;;6.44;100.00;100490.00;6120418;23;20044;-88
2023/01/12 04:12:32;;;;;;;20.17;5.68;;;;;;;6.48;100.00;100491.59;6119218;23;20101;-88
2023/01/12 04:14:57;;;;;;;20.20;5.15;;;;;;;6.43;100.00;100454.72;6118420;23;20052;-90
2023/01/12 04:17:24;;;;;;;21.83;4.63;;;;;;;6.55;100.00;100481.63;6120033;23;20002;-89
2023/01/12 04:19:50;;;;;;;19.92;5.32;;;;;;;6.49;100.00;100472.16;6119630;23;20037;-88
2023/01/12 04:25:01;;;;;;;20.20;5.22;;;;;;;6.58;100.00;100460.34;6119018;23;20754;-89
2023/01/12 04:27:27;;;;;;;18.85;4.90;;;;;;;6.47;100.00;100458.97;6120450;23;20085;-88
2023/01/12 04:29:52;;;;;;;17.98;5.47;;;;;;;6.53;100.00;100446.47;6120817;23;20085;-88
2023/01/12 04:32:18;;;;;;;22.05;5.47;;;;;;;6.56;100.00;100451.59;6120938;23;20038;-90
2023/01/12 04:34:44;;;;;;;20.77;5.97;;;;;;;6.54;100.00;100454.31;6121101;23;20408;-89
2023/01/12 04:37:10;;;;;;;19.23;5.38;;;;;;;6.49;100.00;100451.00;6120028;23;20014;-91
2023/01/12 04:39:35;;;;;;;19.63;5.13;;;;;;;6.57;100.00;100459.50;6124098;23;20331;-88
2023/01/12 04:42:00;;;;;;;19.48;5.40;;;;;;;6.56;100.00;100426.00;6122436;23;20006;-91
2023/01/12 04:44:25;;;;;;;24.48;5.43;;;;;;;6.48;100.00;100434.28;6121988;23;20009;-89
2023/01/12 04:46:51;;;;;;;18.23;4.78;;;;;;;6.52;100.00;100410.34;6120216;23;20005;-88
2023/01/12 04:49:16;;;;;;;19.40;6.13;;;;;;;6.59;100.00;100411.81;6119544;23;20021;-90
2023/01/12 04:51:42;;;;;;;22.92;5.72;;;;;;;6.51;100.00;100396.25;6120381;23;19997;-91
2023/01/12 04:54:09;;;;;;;19.95;5.75;;;;;;;6.59;100.00;100414.47;6120162;23;20523;-92
2023/01/12 04:56:34;;;;;;;20.85;4.90;;;;;;;6.60;100.00;100400.31;6121113;23;20037;-88
2023/01/12 04:59:00;;;;;;;20.42;5.03;;;;;;;6.45;100.00;100378.03;6120542;23;20014;-90
2023/01/12 05:01:28;;;;;;;22.52;4.90;;;;;;;6.58;100.00;100375.72;6132530;23;20487;-90
2023/01/12 05:04:01;;;;;;;23.60;5.30;;;;;;;6.55;100.00;100386.41;6138261;23;20025;-91
2023/01/12 05:06:27;;;;;;;21.00;5.22;;;;;;;6.58;100.00;100370.44;6144175;23;20025;-89
2023/01/12 05:11:36;;;;;;;;;;;;;;;6.61;100.00;100362.38;6146477;23;20188;-90
2023/01/12 05:14:02;;;;;;;20.17;5.30;;;;;;;6.58;100.00;100381.88;6144567;23;19912;-92
2023/01/12 05:16:28;;;;;;;21.35;4.70;;;;;;;6.58;100.00;100395.09;6144979;23;20005;-89
2023/01/12 05:18:53;;;;;;;21.45;5.60;;;;;;;6.56;100.00;100388.13;6144967;23;20029;-88
2023/01/12 05:21:21;;;;;;;19.55;5.80;;;;;;;6.60;100.00;100390.59;6134395;23;20002;-90
2023/01/12 05:23:47;;;;;;;22.33;6.03;;;;;;;6.51;100.00;100417.41;6124115;23;20014;-93
2023/01/12 05:26:13;;;;;;;30.35;6.10;;;;;;;6.46;100.00;100354.16;6124033;23;20033;-90
2023/01/12 05:28:38;;;;;;;20.38;5.68;;;;;;;6.53;100.00;100353.91;6124693;23;20010;-88
2023/01/12 05:31:09;;;;;;;18.00;5.93;;;;;;;6.55;100.00;100366.13;6123871;23;20002;-88
2023/01/12 05:33:36;;;;;;;26.33;6.93;;;;;;;6.58;100.00;100373.09;6124134;23;20331;-87
2023/01/12 05:36:06;;;;;;;20.38;5.57;;;;;;;6.57;100.00;100339.63;6125385;23;20347;-89
2023/01/12 05:38:31;;;;;;;24.38;5.53;;;;;;;6.53;100.00;100357.41;6126575;23;20006;-88
2023/01/12 05:41:01;;;;;;;23.33;5.60;;;;;;;6.60;100.00;100352.72;6128263;23;20021;-88
2023/01/12 05:46:12;;;;;;;22.73;5.43;;;;;;;6.56;100.00;100353.75;6127763;23;20072;-90
2023/01/12 05:48:37;;;;;;;22.55;5.80;;;;;;;6.47;100.00;100337.34;6127262;23;20001;-91
2023/01/12 05:51:04;;;;;;;20.52;5.35;;;;;;;6.60;100.00;100356.22;6125986;23;20086;-89
2023/01/12 05:53:29;;;;;;;17.30;5.50;;;;;;;6.56;100.00;100335.25;6121524;23;20097;-90
2023/01/12 05:55:55;;;;;;;20.23;5.47;;;;;;;6.60;100.00;100335.06;6121894;23;20050;-89
2023/01/12 05:58:21;;;;;;;20.80;5.05;;;;;;;6.57;100.00;100342.28;6122743;23;20002;-91
2023/01/12 06:00:46;;;;;;;18.88;5.13;;;;;;;6.64;100.00;100364.88;6122306;23;20018;-88
2023/01/12 06:03:11;;;;;;;21.25;5.13;;;;;;;6.63;100.00;100349.94;6120600;23;20089;-88
2023/01/12 06:05:37;;;;;;;17.92;5.10;;;;;;;6.60;100.00;100310.41;6123635;23;20013;-88
2023/01/12 06:08:02;;;;;;;15.82;4.72;;;;;;;6.66;100.00;100348.03;6138302;23;20017;-91
2023/01/12 06:10:28;;;;;;;16.13;4.38;;;;;;;6.63;100.00;100334.06;6132199;23;20078;-90
2023/01/12 06:15:37;;;;;;;;;;;;;;;6.70;100.00;100346.13;6141477;23;20049;-91
2023/01/12 06:18:02;;;;;;;14.00;3.80;;;;;;;6.75;100.00;100357.34;6137498;23;19909;-88
2023/01/12 06:20:28;;;;;;;15.23;4.68;;;;;;;6.72;100.00;100357.47;6120909;23;20010;-89
2023/01/12 06:22:54;;;;;;;13.10;4.45;;;;;;;6.73;100.00;100332.78;6117572;23;20010;-90
2023/01/12 06:25:19;;;;;;;13.13;3.90;;;;;;;6.78;100.00;100341.38;6119755;23;20010;-91
2023/01/12 06:27:45;;;;;;;12.90;3.50;;;;;;;6.65;100.00;100334.88;6121791;23;20479;-90
2023/01/12 06:30:10;;;;;;;15.75;3.70;;;;;;;6.85;100.00;100361.31;6118133;23;20033;-90
2023/01/12 06:32:37;;;;;;;11.38;3.45;;;;;;;6.84;100.00;100351.66;6120753;23;20014;-91
2023/01/12 06:35:03;;;;;;;13.55;3.53;;;;;;;6.85;100.00;100328.72;6119860;23;20384;-90
2023/01/12 06:37:29;;;;;;;12.65;3.20;;;;;;;6.79;100.00;100326.34;6121122;23;20048;-89
2023/01/12 06:39:54;;;;;;;9.98;3.58;;;;;;;6.77;100.00;100336.97;6121291;23;20068;-89
2023/01/12 06:42:28;;;;;;;11.13;3.00;;;;;;;6.81;100.00;100333.28;6122169;23;20006;-89
2023/01/12 06:44:55;;;;;;;9.30;2.78;;;;;;;6.89;100.00;100333.81;6123481;23;20207;-90
2023/01/12 06:47:21;;;;;;;8.85;3.10;;;;;;;6.88;100.00;100345.31;6120362;23;20006;-91
2023/01/12 06:49:46;;;;;;;11.88;3.45;;;;;;;6.92;100.00;100360.13;6120983;23;20395;-89
2023/01/12 06:52:11;;;;;;;7.63;2.67;;;;;;;6.94;100.00;100374.16;6119680;23;20736;-88
2023/01/12 06:54:36;;;;;;;9.38;2.97;;;;;;;6.97;100.00;100336.97;6119408;23;20014;-90
2023/01/12 06:57:02;;;;;;;9.32;2.75;;;;;;;6.98;100.00;100353.69;6117703;23;20049;-92
2023/01/12 06:59:27;;;;;;;6.40;2.60;;;;;;;6.98;100.00;100351.94;6118900;23;20010;-89
2023/01/12 07:01:52;;;;;;;10.32;2.70;;;;;;;6.98;100.00;100354.59;6116578;23;20006;-89
2023/01/12 07:04:18;;;;;;;7.53;2.65;;;;;;;6.96;100.00;100347.63;6119167;23;20006;-89
2023/01/12 07:06:43;;;;;;;7.85;2.45;;;;;;;6.96;100.00;100334.41;6118335;23;20056;-92
2023/01/12 07:09:08;;;;;;;6.03;2.58;;;;;;;7.05;100.00;100368.38;6118002;23;20057;-88
2023/01/12 07:11:34;;;;;;;8.65;2.40;;;;;;;7.07;100.00;100357.75;6119941;23;20013;-95
2023/01/12 07:13:59;;;;;;;9.02;3.00;;;;;;;7.03;100.00;100359.69;6117367;23;20080;-89
2023/01/12 07:16:24;;;;;;;8.98;2.65;;;;;;;7.06;100.00;100362.16;6119504;23;20696;-92
2023/01/12 07:18:50;;;;;;;6.70;2.80;;;;;;;6.99;100.00;100336.94;6118994;23;20005;-89
2023/01/12 07:21:18;;;;;;;8.25;2.90;;;;;;;7.09;100.00;100364.69;6119241;23;20021;-90
2023/01/12 07:23:44;;;;;;;5.90;2.65;;;;;;;7.03;100.00;100349.09;6118116;23;20081;-91
2023/01/12 07:26:10;;;;;;;9.60;2.72;;;;;;;7.05;100.00;100338.44;6118960;23;20010;-89
2023/01/12 07:28:36;;;;;;;11.68;3.45;;;;;;;7.09;100.00;100326.78;6120963;23;20548;-89
2023/01/12 07:31:03;;;;;;;7.18;2.63;;;;;;;7.05;100.00;100336.63;6137140;23;19994;-89
2023/01/12 07:33:29;;;;;;;7.45;3.10;;;;;;;7.06;100.00;100346.28;6146623;23;20077;-88
2023/01/12 07:35:59;;;;;;;9.35;3.13;;;;;;;7.13;100.00;100365.41;6147391;23;20025;-89
2023/01/12 07:38:26;;;;;;;7.80;2.88;;;;;;;7.18;100.00;100363.41;6148622;23;19994;-88
2023/01/12 07:40:51;;;;;;;6.88;2.90;;;;;;;7.18;100.00;100366.06;6147462;23;19998;-88
2023/01/12 07:43:17;;;;;;;8.23;3.28;;;;;;;7.18;100.00;100356.34;6144664;23;20009;-88
2023/01/12 07:45:46;;;;;;;8.57;3.10;;;;;;;7.18;100.00;100374.84;6142376;23;20077;-87
2023/01/12 07:48:11;;;;;;;7.25;2.70;;;;;;;7.19;100.00;100373.94;6138192;23;20416;-86
2023/01/12 07:50:37;;;;;;;7.75;2.85;;;;;;;7.17;100.00;100361.69;6132471;23;20087;-88
2023/01/12 07:53:02;;;;;;;9.50;2.90;;;;;;;7.07;100.00;100341.88;6124261;23;20416;-90
2023/01/12 07:55:29;;;;;;;9.90;2.88;;;;;;;7.25;100.00;100364.88;6125056;23;20339;-89
2023/01/12 07:57:56;;;;;;;6.78;3.20;;;;;;;7.23;100.00;100379.94;6121698;23;20009;-86
2023/01/12 08:00:22;;;;;;;8.95;2.70;;;;;;;7.22;100.00;100367.66;6122684;23;19997;-88
2023/01/12 08:02:49;;;;;;;5.18;2.45;;;;;;;7.30;100.00;100380.53;6122901;23;20016;-89
2023/01/12 08:05:19;;;;;;;9.32;2.55;;;;;;;7.21;100.00;100371.22;6124061;23;20053;-89
2023/01/12 08:07:44;;;;;;;9.13;3.03;;;;;;;7.20;100.00;100365.06;6121048;23;20013;-87
2023/01/12 08:10:11;;;;;;;8.05;2.55;;;;;;;7.33;100.00;100386.56;6121914;23;20028;-89
2023/01/12 08:12:36;;;;;;;8.82;3.40;;;;;;;7.29;100.00;100389.41;6121842;23;20017;-88
2023/01/12 08:15:03;;;;;;;6.35;2.63;;;;;;;7.31;100.00;100390.19;6133776;23;20020;-92
2023/01/12 08:17:32;;;;;;;5.55;2.60;;;;;;;7.34;100.00;100404.16;6143920;23;20030;-92
2023/01/12 08:20:06;;;;;;;5.78;2.63;;;;;;;7.38;100.00;100405.75;6140440;23;20408;-90
2023/01/12 08:22:36;;;;;;;7.25;2.97;;;;;;;7.41;100.00;100402.97;6118108;23;20014;-89
2023/01/12 08:25:15;;;;;;;5.82;2.95;;;;;;;7.42;100.00;100423.22;6121355;23;20001;-89
2023/01/12 08:27:45;;;;;;;7.72;2.70;;;;;;;7.36;100.00;100402.31;6122299;23;20009;-90
2023/01/12 08:30:14;;;;;;;10.38;3.15;;;;;;;7.43;100.00;100410.84;6122071;23;20405;-89
2023/01/12 08:32:40;;;;;;;5.65;2.58;;;;;;;7.44;100.00;100407.25;6118410;23;20006;-89
2023/01/12 08:35:06;;;;;;;7.18;2.80;;;;;;;7.47;100.00;100423.00;6120743;23;20021;-90
2023/01/12 08:37:33;;;;;;;7.85;2.67;;;;;;;7.45;100.00;100420.44;6121795;23;20016;-89
2023/01/12 08:39:58;;;;;;;9.40;2.78;;;;;;;7.45;100.00;100409.00;6118244;23;20012;-88
2023/01/12 08:42:26;;;;;;;6.22;2.63;;;;;;;7.40;100.00;100405.69;6118309;23;20009;-87
2023/01/12 08:44:52;;;;;;;6.82;3.25;;;;;;;7.51;100.00;100426.38;6120231;23;20094;-88
2023/01/12 08:47:27;;;;;;;6.70;2.85;;;;;;;7.42;100.00;100406.47;6122917;23;20081;-89
2023/01/12 08:49:57;;;;;;;5.95;2.78;;;;;;;7.56;100.00;100430.53;6120613;23;20073;-90
2023/01/12 08:52:24;;;;;;;5.60;3.00;;;;;;;7.51;100.00;100426.38;6119855;23;20006;-88
2023/01/12 08:54:49;;;;;;;7.80;3.20;;;;;;;7.58;100.00;100441.06;6120708;23;20001;-90
2023/01/12 08:57:15;;;;;;;4.60;2.60;;;;;;;7.54;100.00;100429.75;6120373;23;20376;-89
2023/01/12 08:59:41;;;;;;;8.38;3.28;;;;;;;7.54;100.00;100423.59;6119079;23;20009;-87
2023/01/12 09:02:06;;;;;;;7.13;3.38;;;;;;;7.61;100.00;100430.34;6115047;23;20435;-88
2023/01/12 09:04:31;;;;;;;6.20;2.70;;;;;;;7.63;100.00;100431.13;6119831;23;20037;-87
2023/01/12 09:06:57;;;;;;;7.97;3.15;;;;;;;7.54;100.00;100431.56;6120120;23;20380;-89
2023/01/12 09:09:23;;;;;;;6.00;2.63;;;;;;;7.63;100.00;100447.88;6118832;23;20006;-90
2023/01/12 09:11:49;;;;;;;4.75;2.35;;;;;;;7.65;100.00;100446.03;6118530;23;20068;-88
2023/01/12 09:14:15;;;;;;;7.05;2.70;;;;;;;7.60;100.00;100442.72;6116725;23;20010;-90
2023/01/12 09:16:41;;;;;;;5.80;2.70;;;;;;;7.65;100.00;100461.03;6120353;23;20068;-89
2023/01/12 09:19:07;;;;;;;4.25;2.30;;;;;;;7.66;100.00;100447.75;6119542;23;20006;-89
2023/01/12 09:21:36;;;;;;;6.53;2.33;;;;;;;7.66;100.00;100457.50;6118697;23;20428;-91
2023/01/12 09:24:01;;;;;;;5.20;2.70;;;;;;;7.67;100.00;100464.50;6116672;23;20014;-91
2023/01/12 09:26:32;;;;;;;6.30;3.00;;;;;;;7.70;100.00;100448.47;6117710;23;20076;-88
2023/01/12 09:29:00;;;;;;;5.40;2.58;;;;;;;7.69;100.00;100458.22;6121065;23;20471;-90
2023/01/12 09:31:27;;;;;;;8.10;2.70;;;;;;;7.72;100.00;100473.09;6118241;23;20012;-91
2023/01/12 09:33:53;;;;;;;3.60;2.13;;;;;;;7.71;100.00;100456.34;6118683;23;20471;-88
2023/01/12 09:36:24;;;;;;;4.88;2.40;;;;;;;7.80;100.00;100467.44;6119421;23;20037;-91
2023/01/12 09:38:50;;;;;;;6.57;3.15;;;;;;;7.81;100.00;100466.53;6119185;23;20385;-88
2023/01/12 09:47:34;;;;;;;6.25;2.30;;;;;;;7.81;100.00;100480.63;6121848;23;20020;-89
2023/01/12 09:50:03;;;;;;;2.88;2.28;;;;;;;7.83;100.00;100497.31;6130087;23;20026;-88
2023/01/12 09:52:37;;;;;;;6.43;2.65;;;;;;;7.74;100.00;100476.56;6127020;23;20034;-89
2023/01/12 09:55:02;;;;;;;7.25;2.67;;;;;;;7.83;100.00;100489.38;6132049;23;20337;-91
2023/01/12 09:57:58;;;;;;;6.88;3.78;;;;;;;7.82;100.00;100498.25;6130582;23;20010;-90
2023/01/12 10:00:26;;;;;;;5.30;2.50;;;;;;;7.83;100.00;100489.38;6136308;23;19992;-92
2023/01/12 10:03:23;;;;;;;8.57;2.60;;;;;;;7.83;100.00;100499.97;6142537;23;20006;-90
2023/01/12 10:05:59;;;;;;;4.55;2.28;;;;;;;7.87;100.00;100493.59;6147773;23;20013;-88
2023/01/12 10:08:38;;;;;;;5.18;2.20;;;;;;;7.88;100.00;100494.47;6147048;23;19994;-90
2023/01/12 10:11:07;;;;;;;4.80;2.65;;;;;;;7.91;100.00;100511.09;6147155;23;19998;-93
2023/01/12 10:13:55;;;;;;;7.15;2.60;;;;;;;7.94;100.00;100496.81;6147664;23;20006;-89
2023/01/12 10:16:26;;;;;;;4.88;2.60;;;;;;;7.94;100.00;100505.66;6143399;23;20337;-90
2023/01/12 10:18:57;;;;;;;4.75;2.20;;;;;;;7.94;100.00;100499.47;6114229;23;20005;-88
2023/01/12 10:21:24;;;;;;;4.32;2.08;;;;;;;7.95;100.00;100498.56;6141652;23;20002;-95
2023/01/12 10:23:52;;;;;;;6.60;2.30;;;;;;;7.96;100.00;100501.13;6147669;23;20010;-95
2023/01/12 10:26:21;;;;;;;4.28;2.15;;;;;;;7.97;100.00;100494.91;6144233;23;20006;-90
2023/01/12 10:28:51;;;;;;;5.43;2.20;;;;;;;8.00;100.00;100504.50;6142633;23;20005;-91
2023/01/12 10:31:23;;;;;;;4.57;1.92;;;;;;;8.02;100.00;100501.78;6121917;23;20018;-94
2023/01/12 10:34:09;;;;;;;3.35;2.10;;;;;;;8.03;100.00;100487.63;6142311;23;20088;-93
2023/01/12 10:36:41;;;;;;;4.63;2.58;;;;;;;8.01;100.00;100489.47;6112474;23;20016;-94
2023/01/12 10:39:27;;;;;;;5.07;2.20;;;;;;;8.06;100.00;100498.06;6146423;23;20014;-92
2023/01/12 10:45:14;;;;;;;2.85;1.80;;;;;;;8.07;100.00;100503.31;6150172;23;20144;-96
2023/01/12 10:47:43;;;;;;;3.88;1.98;;;;;;;8.11;100.00;100493.41;6151463;23;20054;-93
2023/01/12 10:50:21;;;;;;;4.22;1.63;;;;;;;8.10;100.00;100494.34;6137068;23;20358;-92
2023/01/12 10:52:47;;;;;;;3.45;1.88;;;;;;;8.05;100.00;100480.44;6104568;23;20016;-95
2023/01/12 10:55:23;;;;;;;4.35;1.80;;;;;;;8.07;100.00;100483.88;6103269;23;20006;-94
2023/01/12 10:57:51;;;;;;;2.17;1.65;;;;;;;8.06;100.00;100484.81;6109280;23;20012;-93
2023/01/12 11:00:25;;;;;;;3.28;1.80;;;;;;;7.98;100.00;100467.50;6123550;23;20076;-89
2023/01/12 11:02:51;;;;;;;2.85;1.90;;;;;;;8.09;100.00;100493.47;6123331;23;20069;-95
2023/01/12 11:05:35;;;;;;;4.75;2.08;;;;;;;8.07;100.00;100478.56;6124497;23;20013;-95
2023/01/12 11:08:01;;;;;;;4.82;2.00;;;;;;;8.07;100.00;100489.16;6096432;23;20006;-93
2023/01/12 11:10:29;;;;;;;2.65;1.90;;;;;;;8.06;100.00;100495.41;6095301;23;20077;-93
2023/01/12 11:13:02;;;;;;;2.55;1.70;;;;;;;8.09;100.00;100487.31;6121842;23;20037;-91
2023/01/12 11:15:29;;;;;;;5.70;2.10;;;;;;;8.11;100.00;100515.50;6121116;23;20021;-91
2023/01/12 11:18:13;;;;;;;2.78;2.03;;;;;;;8.11;100.00;100493.41;6121563;23;20241;-90
2023/01/12 11:20:49;;;;;;;4.95;2.20;;;;;;;8.13;100.00;100499.50;6121614;23;20069;-90
2023/01/12 11:23:23;;;;;;;3.30;1.92;;;;;;;8.10;100.00;100479.28;6119418;23;20483;-93
2023/01/12 11:25:51;;;;;;;3.70;2.20;;;;;;;8.15;100.00;100487.03;6121159;23;20033;-92
2023/01/12 11:28:26;;;;;;;2.95;1.90;;;;;;;8.18;100.00;100485.09;6119601;23;20036;-93
2023/01/12 11:31:06;;;;;;;4.72;2.45;;;;;;;8.22;100.00;100484.03;6119832;23;20002;-93
2023/01/12 11:33:41;;;;;;;3.90;1.90;;;;;;;8.19;100.00;100488.59;6120863;23;20060;-93
2023/01/12 11:36:18;;;;;;;3.35;2.00;;;;;;;8.22;100.00;100472.56;6120821;23;20005;-92
2023/01/12 11:38:46;;;;;;;6.90;2.15;;;;;;;8.24;100.00;100483.97;6121271;23;20010;-93
2023/01/12 11:41:28;;;;;;;3.58;1.90;;;;;;;8.24;100.00;100468.06;6120438;23;20002;-95
2023/01/12 11:44:04;;;;;;;3.97;2.00;;;;;;;8.24;100.00;100473.38;6120563;23;20013;-93
2023/01/12 11:46:41;;;;;;;3.20;2.00;;;;;;;8.18;100.00;100465.69;6121128;23;20299;-92
2023/01/12 11:49:30;;;;;;;4.18;1.90;;;;;;;8.28;100.00;100482.00;6120651;23;20044;-91
2023/01/12 11:51:57;;;;;;;4.22;2.00;;;;;;;8.20;100.00;100456.75;6119680;23;20002;-90
2023/01/12 11:54:28;;;;;;;5.30;2.28;;;;;;;8.27;100.00;100489.09;6121915;23;20066;-90
2023/01/12 11:57:03;;;;;;;2.60;1.90;;;;;;;8.28;100.00;100477.59;6120422;23;20674;-90
2023/01/12 11:59:39;;;;;;;3.67;2.00;;;;;;;8.22;100.00;100461.94;6122434;23;20438;-92
2023/01/12 12:02:35;;;;;;;3.60;2.25;;;;;;;8.32;100.00;100468.56;6121108;23;20006;-91
2023/01/12 12:05:27;;;;;;;3.58;1.90;;;;;;;8.35;100.00;100468.38;6122505;23;20028;-92